sensor_id;sensor_type;location;lat;lon;timestamp;P1;durP1;ratioP1;P2;durP2;ratioP2
46753;SDS011;32500;50.620;3.400;2024-02-23T00:01:54;145.55;;;55.70;;
46753;SDS011;32500;50.620;3.400;2024-02-23T00:04:20;147.57;;;55.97;;
46753;SDS011;32500;50.620;3.400;2024-02-23T00:06:46;146.40;;;56.03;;
46753;SDS011;32500;50.620;3.400;2024-02-23T00:09:11;145.95;;;55.63;;
46753;SDS011;32500;50.620;3.400;2024-02-23T00:11:40;145.93;;;55.55;;
46753;SDS011;32500;50.620;3.400;2024-02-23T00:14:09;146.63;;;55.58;;
46753;SDS011;32500;50.620;3.400;2024-02-23T00:16:39;145.40;;;55.63;;
46753;SDS011;32500;50.620;3.400;2024-02-23T00:19:07;146.25;;;55.88;;
46753;SDS011;32500;50.620;3.400;2024-02-23T00:21:36;144.77;;;55.28;;
46753;SDS011;32500;50.620;3.400;2024-02-23T00:24:03;147.25;;;55.50;;
46753;SDS011;32500;50.620;3.400;2024-02-23T00:26:30;145.32;;;55.35;;
46753;SDS011;32500;50.620;3.400;2024-02-23T00:28:56;145.48;;;55.50;;
46753;SDS011;32500;50.620;3.400;2024-02-23T00:31:21;146.48;;;55.67;;
46753;SDS011;32500;50.620;3.400;2024-02-23T00:33:47;145.00;;;55.35;;
46753;SDS011;32500;50.620;3.400;2024-02-23T00:36:13;146.65;;;55.70;;
46753;SDS011;32500;50.620;3.400;2024-02-23T00:38:39;145.15;;;55.65;;
46753;SDS011;32500;50.620;3.400;2024-02-23T00:41:05;146.10;;;55.47;;
46753;SDS011;32500;50.620;3.400;2024-02-23T00:43:37;145.80;;;55.47;;
46753;SDS011;32500;50.620;3.400;2024-02-23T00:46:09;145.00;;;55.15;;
46753;SDS011;32500;50.620;3.400;2024-02-23T00:48:35;143.98;;;55.30;;
46753;SDS011;32500;50.620;3.400;2024-02-23T00:51:01;143.98;;;54.95;;
46753;SDS011;32500;50.620;3.400;2024-02-23T00:53:27;144.93;;;55.58;;
46753;SDS011;32500;50.620;3.400;2024-02-23T00:55:54;144.93;;;55.38;;
46753;SDS011;32500;50.620;3.400;2024-02-23T00:58:19;144.23;;;55.40;;
46753;SDS011;32500;50.620;3.400;2024-02-23T01:00:45;144.48;;;55.20;;
46753;SDS011;32500;50.620;3.400;2024-02-23T01:03:11;145.57;;;55.40;;
46753;SDS011;32500;50.620;3.400;2024-02-23T01:05:36;144.80;;;55.60;;
46753;SDS011;32500;50.620;3.400;2024-02-23T01:08:03;145.18;;;55.38;;
46753;SDS011;32500;50.620;3.400;2024-02-23T01:10:29;144.77;;;55.38;;
46753;SDS011;32500;50.620;3.400;2024-02-23T01:12:55;145.07;;;55.45;;
46753;SDS011;32500;50.620;3.400;2024-02-23T01:15:20;144.45;;;55.03;;
46753;SDS011;32500;50.620;3.400;2024-02-23T01:17:46;145.32;;;55.22;;
46753;SDS011;32500;50.620;3.400;2024-02-23T01:20:12;144.30;;;55.38;;
46753;SDS011;32500;50.620;3.400;2024-02-23T01:22:38;144.85;;;55.35;;
46753;SDS011;32500;50.620;3.400;2024-02-23T01:25:04;144.18;;;55.20;;
46753;SDS011;32500;50.620;3.400;2024-02-23T01:27:30;144.75;;;55.45;;
46753;SDS011;32500;50.620;3.400;2024-02-23T01:29:56;145.57;;;55.50;;
46753;SDS011;32500;50.620;3.400;2024-02-23T01:32:22;144.65;;;55.35;;
46753;SDS011;32500;50.620;3.400;2024-02-23T01:34:47;145.95;;;55.72;;
46753;SDS011;32500;50.620;3.400;2024-02-23T01:37:13;144.75;;;55.30;;
46753;SDS011;32500;50.620;3.400;2024-02-23T01:39:39;146.18;;;55.45;;
46753;SDS011;32500;50.620;3.400;2024-02-23T01:42:05;143.98;;;55.03;;
46753;SDS011;32500;50.620;3.400;2024-02-23T01:44:31;143.65;;;54.88;;
46753;SDS011;32500;50.620;3.400;2024-02-23T01:46:56;144.65;;;55.40;;
46753;SDS011;32500;50.620;3.400;2024-02-23T01:49:23;143.63;;;54.90;;
46753;SDS011;32500;50.620;3.400;2024-02-23T01:54:23;143.88;;;55.13;;
46753;SDS011;32500;50.620;3.400;2024-02-23T01:56:50;146.43;;;55.47;;
46753;SDS011;32500;50.620;3.400;2024-02-23T01:59:17;144.48;;;55.33;;
46753;SDS011;32500;50.620;3.400;2024-02-23T02:01:44;144.60;;;55.20;;
46753;SDS011;32500;50.620;3.400;2024-02-23T02:04:10;144.05;;;55.08;;
46753;SDS011;32500;50.620;3.400;2024-02-23T02:06:36;144.88;;;55.08;;
46753;SDS011;32500;50.620;3.400;2024-02-23T02:09:02;145.70;;;55.22;;
46753;SDS011;32500;50.620;3.400;2024-02-23T02:11:28;144.05;;;55.30;;
46753;SDS011;32500;50.620;3.400;2024-02-23T02:13:53;143.75;;;55.08;;
46753;SDS011;32500;50.620;3.400;2024-02-23T02:16:19;144.90;;;55.40;;
46753;SDS011;32500;50.620;3.400;2024-02-23T02:18:44;145.70;;;55.15;;
46753;SDS011;32500;50.620;3.400;2024-02-23T02:21:11;144.57;;;55.05;;
46753;SDS011;32500;50.620;3.400;2024-02-23T02:23:37;143.80;;;55.08;;
46753;SDS011;32500;50.620;3.400;2024-02-23T02:26:03;144.95;;;55.47;;
46753;SDS011;32500;50.620;3.400;2024-02-23T02:28:29;145.35;;;55.42;;
46753;SDS011;32500;50.620;3.400;2024-02-23T02:30:55;143.35;;;54.72;;
46753;SDS011;32500;50.620;3.400;2024-02-23T02:33:21;143.95;;;55.28;;
46753;SDS011;32500;50.620;3.400;2024-02-23T02:35:47;143.57;;;54.97;;
46753;SDS011;32500;50.620;3.400;2024-02-23T02:38:14;145.00;;;55.15;;
46753;SDS011;32500;50.620;3.400;2024-02-23T02:40:40;144.32;;;55.13;;
46753;SDS011;32500;50.620;3.400;2024-02-23T02:43:06;144.70;;;55.50;;
46753;SDS011;32500;50.620;3.400;2024-02-23T02:45:33;143.70;;;54.95;;
46753;SDS011;32500;50.620;3.400;2024-02-23T02:48:02;144.50;;;55.40;;
46753;SDS011;32500;50.620;3.400;2024-02-23T02:50:28;145.10;;;55.38;;
46753;SDS011;32500;50.620;3.400;2024-02-23T02:52:54;145.35;;;55.53;;
46753;SDS011;32500;50.620;3.400;2024-02-23T02:55:20;143.95;;;55.10;;
46753;SDS011;32500;50.620;3.400;2024-02-23T02:57:45;145.20;;;55.17;;
46753;SDS011;32500;50.620;3.400;2024-02-23T03:00:11;144.50;;;55.28;;
46753;SDS011;32500;50.620;3.400;2024-02-23T03:02:37;144.93;;;55.30;;
46753;SDS011;32500;50.620;3.400;2024-02-23T03:05:03;144.45;;;55.47;;
46753;SDS011;32500;50.620;3.400;2024-02-23T03:07:29;144.63;;;55.47;;
46753;SDS011;32500;50.620;3.400;2024-02-23T03:09:55;143.57;;;55.28;;
46753;SDS011;32500;50.620;3.400;2024-02-23T03:12:20;145.02;;;54.95;;
46753;SDS011;32500;50.620;3.400;2024-02-23T03:14:46;145.02;;;55.42;;
46753;SDS011;32500;50.620;3.400;2024-02-23T03:17:12;143.20;;;54.92;;
46753;SDS011;32500;50.620;3.400;2024-02-23T03:19:37;144.07;;;54.90;;
46753;SDS011;32500;50.620;3.400;2024-02-23T03:22:03;143.95;;;55.15;;
46753;SDS011;32500;50.620;3.400;2024-02-23T03:24:30;143.48;;;55.03;;
46753;SDS011;32500;50.620;3.400;2024-02-23T03:26:55;144.75;;;55.40;;
46753;SDS011;32500;50.620;3.400;2024-02-23T03:29:21;143.60;;;55.20;;
46753;SDS011;32500;50.620;3.400;2024-02-23T03:31:54;144.02;;;55.13;;
46753;SDS011;32500;50.620;3.400;2024-02-23T03:34:22;143.93;;;55.28;;
46753;SDS011;32500;50.620;3.400;2024-02-23T03:36:48;144.30;;;55.17;;
46753;SDS011;32500;50.620;3.400;2024-02-23T03:39:14;143.23;;;55.13;;
46753;SDS011;32500;50.620;3.400;2024-02-23T03:41:39;143.27;;;55.05;;
46753;SDS011;32500;50.620;3.400;2024-02-23T03:44:05;144.75;;;55.25;;
46753;SDS011;32500;50.620;3.400;2024-02-23T03:46:31;144.68;;;55.50;;
46753;SDS011;32500;50.620;3.400;2024-02-23T03:48:57;144.75;;;55.42;;
46753;SDS011;32500;50.620;3.400;2024-02-23T03:51:22;144.15;;;55.15;;
46753;SDS011;32500;50.620;3.400;2024-02-23T03:53:49;145.98;;;55.33;;
46753;SDS011;32500;50.620;3.400;2024-02-23T03:56:15;144.48;;;55.25;;
46753;SDS011;32500;50.620;3.400;2024-02-23T03:58:41;142.63;;;54.92;;
46753;SDS011;32500;50.620;3.400;2024-02-23T04:01:07;143.05;;;54.83;;
46753;SDS011;32500;50.620;3.400;2024-02-23T04:03:32;143.68;;;55.08;;
46753;SDS011;32500;50.620;3.400;2024-02-23T04:05:58;144.13;;;54.97;;
46753;SDS011;32500;50.620;3.400;2024-02-23T04:08:24;144.73;;;55.10;;
46753;SDS011;32500;50.620;3.400;2024-02-23T04:10:49;144.13;;;55.40;;
46753;SDS011;32500;50.620;3.400;2024-02-23T04:13:15;143.00;;;54.65;;
46753;SDS011;32500;50.620;3.400;2024-02-23T04:15:42;144.43;;;55.08;;
46753;SDS011;32500;50.620;3.400;2024-02-23T04:18:08;143.63;;;54.85;;
46753;SDS011;32500;50.620;3.400;2024-02-23T04:20:34;142.98;;;55.05;;
46753;SDS011;32500;50.620;3.400;2024-02-23T04:23:00;142.98;;;55.10;;
46753;SDS011;32500;50.620;3.400;2024-02-23T04:25:25;143.15;;;54.97;;
46753;SDS011;32500;50.620;3.400;2024-02-23T04:27:51;143.85;;;55.03;;
46753;SDS011;32500;50.620;3.400;2024-02-23T04:30:16;145.00;;;54.85;;
46753;SDS011;32500;50.620;3.400;2024-02-23T04:32:42;144.93;;;55.10;;
46753;SDS011;32500;50.620;3.400;2024-02-23T04:35:09;142.75;;;54.55;;
46753;SDS011;32500;50.620;3.400;2024-02-23T04:37:34;144.07;;;55.05;;
46753;SDS011;32500;50.620;3.400;2024-02-23T04:40:00;142.50;;;54.65;;
46753;SDS011;32500;50.620;3.400;2024-02-23T04:42:26;142.80;;;54.83;;
46753;SDS011;32500;50.620;3.400;2024-02-23T04:44:52;143.15;;;54.92;;
46753;SDS011;32500;50.620;3.400;2024-02-23T04:47:20;143.63;;;54.65;;
46753;SDS011;32500;50.620;3.400;2024-02-23T04:49:46;142.85;;;54.65;;
46753;SDS011;32500;50.620;3.400;2024-02-23T04:52:11;142.00;;;54.58;;
46753;SDS011;32500;50.620;3.400;2024-02-23T04:54:37;143.60;;;54.95;;
46753;SDS011;32500;50.620;3.400;2024-02-23T04:57:03;144.38;;;54.83;;
46753;SDS011;32500;50.620;3.400;2024-02-23T04:59:29;143.10;;;54.83;;
46753;SDS011;32500;50.620;3.400;2024-02-23T05:01:57;143.38;;;54.70;;
46753;SDS011;32500;50.620;3.400;2024-02-23T05:04:23;143.70;;;55.13;;
46753;SDS011;32500;50.620;3.400;2024-02-23T05:06:48;145.35;;;55.03;;
46753;SDS011;32500;50.620;3.400;2024-02-23T05:09:14;143.45;;;54.83;;
46753;SDS011;32500;50.620;3.400;2024-02-23T05:11:40;144.25;;;55.08;;
46753;SDS011;32500;50.620;3.400;2024-02-23T05:14:05;142.77;;;54.88;;
46753;SDS011;32500;50.620;3.400;2024-02-23T05:16:31;143.45;;;54.95;;
46753;SDS011;32500;50.620;3.400;2024-02-23T05:18:57;142.00;;;54.83;;
46753;SDS011;32500;50.620;3.400;2024-02-23T05:21:22;144.95;;;55.10;;
46753;SDS011;32500;50.620;3.400;2024-02-23T05:23:48;143.30;;;55.08;;
46753;SDS011;32500;50.620;3.400;2024-02-23T05:26:14;143.73;;;55.03;;
46753;SDS011;32500;50.620;3.400;2024-02-23T05:28:40;143.88;;;55.08;;
46753;SDS011;32500;50.620;3.400;2024-02-23T05:31:06;143.73;;;54.55;;
46753;SDS011;32500;50.620;3.400;2024-02-23T05:33:32;143.10;;;54.97;;
46753;SDS011;32500;50.620;3.400;2024-02-23T05:35:57;142.43;;;55.08;;
46753;SDS011;32500;50.620;3.400;2024-02-23T05:38:23;142.18;;;54.60;;
46753;SDS011;32500;50.620;3.400;2024-02-23T05:40:49;144.40;;;55.08;;
46753;SDS011;32500;50.620;3.400;2024-02-23T05:43:14;144.32;;;55.15;;
46753;SDS011;32500;50.620;3.400;2024-02-23T05:45:40;142.57;;;54.75;;
46753;SDS011;32500;50.620;3.400;2024-02-23T05:48:06;143.57;;;54.92;;
46753;SDS011;32500;50.620;3.400;2024-02-23T05:50:32;145.55;;;55.28;;
46753;SDS011;32500;50.620;3.400;2024-02-23T05:52:58;143.35;;;55.25;;
46753;SDS011;32500;50.620;3.400;2024-02-23T05:55:23;147.70;;;54.97;;
46753;SDS011;32500;50.620;3.400;2024-02-23T05:57:49;143.25;;;54.95;;
46753;SDS011;32500;50.620;3.400;2024-02-23T06:00:16;143.70;;;55.35;;
46753;SDS011;32500;50.620;3.400;2024-02-23T06:02:44;142.65;;;54.83;;
46753;SDS011;32500;50.620;3.400;2024-02-23T06:05:11;142.75;;;55.08;;
46753;SDS011;32500;50.620;3.400;2024-02-23T06:07:37;144.45;;;55.00;;
46753;SDS011;32500;50.620;3.400;2024-02-23T06:10:03;142.70;;;54.78;;
46753;SDS011;32500;50.620;3.400;2024-02-23T06:12:30;142.18;;;54.47;;
46753;SDS011;32500;50.620;3.400;2024-02-23T06:14:55;143.85;;;55.13;;
46753;SDS011;32500;50.620;3.400;2024-02-23T06:17:23;142.27;;;54.55;;
46753;SDS011;32500;50.620;3.400;2024-02-23T06:19:49;142.63;;;55.03;;
46753;SDS011;32500;50.620;3.400;2024-02-23T06:22:15;142.82;;;54.90;;
46753;SDS011;32500;50.620;3.400;2024-02-23T06:24:45;141.50;;;54.58;;
46753;SDS011;32500;50.620;3.400;2024-02-23T06:27:12;142.57;;;54.78;;
46753;SDS011;32500;50.620;3.400;2024-02-23T06:29:37;142.00;;;54.70;;
46753;SDS011;32500;50.620;3.400;2024-02-23T06:32:03;143.52;;;55.00;;
46753;SDS011;32500;50.620;3.400;2024-02-23T06:34:29;143.73;;;54.60;;
46753;SDS011;32500;50.620;3.400;2024-02-23T06:36:55;141.75;;;54.70;;
46753;SDS011;32500;50.620;3.400;2024-02-23T06:39:21;143.63;;;55.00;;
46753;SDS011;32500;50.620;3.400;2024-02-23T06:41:46;144.20;;;55.65;;
46753;SDS011;32500;50.620;3.400;2024-02-23T06:44:12;143.82;;;55.28;;
46753;SDS011;32500;50.620;3.400;2024-02-23T06:46:38;143.20;;;54.78;;
46753;SDS011;32500;50.620;3.400;2024-02-23T06:49:03;143.43;;;55.13;;
46753;SDS011;32500;50.620;3.400;2024-02-23T06:51:31;145.35;;;55.25;;
46753;SDS011;32500;50.620;3.400;2024-02-23T06:53:57;143.23;;;54.95;;
46753;SDS011;32500;50.620;3.400;2024-02-23T06:56:22;144.00;;;55.30;;
46753;SDS011;32500;50.620;3.400;2024-02-23T06:58:48;144.65;;;55.58;;
46753;SDS011;32500;50.620;3.400;2024-02-23T07:01:14;145.30;;;55.38;;
46753;SDS011;32500;50.620;3.400;2024-02-23T07:03:40;147.85;;;55.45;;
46753;SDS011;32500;50.620;3.400;2024-02-23T07:06:08;144.95;;;55.20;;
46753;SDS011;32500;50.620;3.400;2024-02-23T07:08:35;147.98;;;55.58;;
46753;SDS011;32500;50.620;3.400;2024-02-23T07:11:01;145.25;;;55.40;;
46753;SDS011;32500;50.620;3.400;2024-02-23T07:13:26;144.68;;;55.30;;
46753;SDS011;32500;50.620;3.400;2024-02-23T07:15:52;147.98;;;55.90;;
46753;SDS011;32500;50.620;3.400;2024-02-23T07:18:18;145.15;;;55.28;;
46753;SDS011;32500;50.620;3.400;2024-02-23T07:20:44;148.05;;;55.50;;
46753;SDS011;32500;50.620;3.400;2024-02-23T07:23:09;146.82;;;55.85;;
46753;SDS011;32500;50.620;3.400;2024-02-23T07:25:35;145.48;;;55.30;;
46753;SDS011;32500;50.620;3.400;2024-02-23T07:28:01;146.98;;;55.35;;
46753;SDS011;32500;50.620;3.400;2024-02-23T07:30:26;144.38;;;55.58;;
46753;SDS011;32500;50.620;3.400;2024-02-23T07:32:52;146.57;;;55.95;;
46753;SDS011;32500;50.620;3.400;2024-02-23T07:35:17;144.73;;;55.42;;
46753;SDS011;32500;50.620;3.400;2024-02-23T07:37:43;145.35;;;55.63;;
46753;SDS011;32500;50.620;3.400;2024-02-23T07:40:09;147.75;;;55.60;;
46753;SDS011;32500;50.620;3.400;2024-02-23T07:42:35;143.40;;;55.17;;
46753;SDS011;32500;50.620;3.400;2024-02-23T07:45:02;143.52;;;55.55;;
46753;SDS011;32500;50.620;3.400;2024-02-23T07:47:29;144.88;;;55.58;;
46753;SDS011;32500;50.620;3.400;2024-02-23T07:49:55;143.70;;;55.38;;
46753;SDS011;32500;50.620;3.400;2024-02-23T07:52:21;143.50;;;55.72;;
46753;SDS011;32500;50.620;3.400;2024-02-23T07:54:49;144.35;;;55.70;;
46753;SDS011;32500;50.620;3.400;2024-02-23T07:57:17;143.90;;;55.33;;
46753;SDS011;32500;50.620;3.400;2024-02-23T07:59:43;145.18;;;55.50;;
46753;SDS011;32500;50.620;3.400;2024-02-23T08:02:08;145.90;;;55.30;;
46753;SDS011;32500;50.620;3.400;2024-02-23T08:04:34;145.82;;;55.40;;
46753;SDS011;32500;50.620;3.400;2024-02-23T08:07:01;143.85;;;55.28;;
46753;SDS011;32500;50.620;3.400;2024-02-23T08:09:26;142.52;;;55.08;;
46753;SDS011;32500;50.620;3.400;2024-02-23T08:11:52;146.93;;;55.47;;
46753;SDS011;32500;50.620;3.400;2024-02-23T08:14:17;143.48;;;54.95;;
46753;SDS011;32500;50.620;3.400;2024-02-23T08:16:43;144.60;;;55.28;;
46753;SDS011;32500;50.620;3.400;2024-02-23T08:19:09;144.50;;;55.45;;
46753;SDS011;32500;50.620;3.400;2024-02-23T08:21:35;145.82;;;55.22;;
46753;SDS011;32500;50.620;3.400;2024-02-23T08:24:01;144.32;;;55.35;;
46753;SDS011;32500;50.620;3.400;2024-02-23T08:26:27;147.05;;;55.42;;
46753;SDS011;32500;50.620;3.400;2024-02-23T08:28:53;147.13;;;55.33;;
46753;SDS011;32500;50.620;3.400;2024-02-23T08:31:19;144.73;;;55.22;;
46753;SDS011;32500;50.620;3.400;2024-02-23T08:33:44;144.52;;;55.35;;
46753;SDS011;32500;50.620;3.400;2024-02-23T08:36:11;145.88;;;55.30;;
46753;SDS011;32500;50.620;3.400;2024-02-23T08:38:37;144.07;;;55.55;;
46753;SDS011;32500;50.620;3.400;2024-02-23T08:41:03;146.40;;;55.65;;
46753;SDS011;32500;50.620;3.400;2024-02-23T08:43:29;146.50;;;55.70;;
46753;SDS011;32500;50.620;3.400;2024-02-23T08:45:54;150.45;;;56.30;;
46753;SDS011;32500;50.620;3.400;2024-02-23T08:48:20;147.90;;;56.03;;
46753;SDS011;32500;50.620;3.400;2024-02-23T08:50:45;151.00;;;56.20;;
46753;SDS011;32500;50.620;3.400;2024-02-23T08:53:11;148.25;;;56.58;;
46753;SDS011;32500;50.620;3.400;2024-02-23T08:55:37;154.50;;;56.92;;
46753;SDS011;32500;50.620;3.400;2024-02-23T08:58:02;159.95;;;57.67;;
46753;SDS011;32500;50.620;3.400;2024-02-23T09:00:30;158.07;;;57.80;;
46753;SDS011;32500;50.620;3.400;2024-02-23T09:02:56;159.77;;;57.97;;
46753;SDS011;32500;50.620;3.400;2024-02-23T09:05:22;157.30;;;57.60;;
46753;SDS011;32500;50.620;3.400;2024-02-23T09:07:47;153.90;;;57.75;;
46753;SDS011;32500;50.620;3.400;2024-02-23T09:10:13;156.27;;;58.13;;
46753;SDS011;32500;50.620;3.400;2024-02-23T09:12:39;159.02;;;58.10;;
46753;SDS011;32500;50.620;3.400;2024-02-23T09:15:05;156.13;;;57.58;;
46753;SDS011;32500;50.620;3.400;2024-02-23T09:17:31;157.45;;;57.50;;
46753;SDS011;32500;50.620;3.400;2024-02-23T09:19:56;154.32;;;57.78;;
46753;SDS011;32500;50.620;3.400;2024-02-23T09:22:22;157.70;;;57.38;;
46753;SDS011;32500;50.620;3.400;2024-02-23T09:24:48;155.23;;;57.17;;
46753;SDS011;32500;50.620;3.400;2024-02-23T09:27:14;154.60;;;57.13;;
46753;SDS011;32500;50.620;3.400;2024-02-23T09:29:40;156.32;;;57.08;;
46753;SDS011;32500;50.620;3.400;2024-02-23T09:32:08;153.98;;;56.90;;
46753;SDS011;32500;50.620;3.400;2024-02-23T09:34:34;151.85;;;57.13;;
46753;SDS011;32500;50.620;3.400;2024-02-23T09:36:59;151.88;;;56.58;;
46753;SDS011;32500;50.620;3.400;2024-02-23T09:39:25;156.30;;;56.30;;
46753;SDS011;32500;50.620;3.400;2024-02-23T09:41:55;150.38;;;56.33;;
46753;SDS011;32500;50.620;3.400;2024-02-23T09:44:22;153.07;;;56.80;;
46753;SDS011;32500;50.620;3.400;2024-02-23T09:46:48;150.73;;;56.95;;
46753;SDS011;32500;50.620;3.400;2024-02-23T09:49:17;150.75;;;56.72;;
46753;SDS011;32500;50.620;3.400;2024-02-23T09:51:42;151.23;;;56.92;;
46753;SDS011;32500;50.620;3.400;2024-02-23T09:54:08;154.32;;;57.88;;
46753;SDS011;32500;50.620;3.400;2024-02-23T09:56:35;152.55;;;57.58;;
46753;SDS011;32500;50.620;3.400;2024-02-23T09:59:02;158.25;;;58.05;;
46753;SDS011;32500;50.620;3.400;2024-02-23T10:01:30;157.30;;;57.55;;
46753;SDS011;32500;50.620;3.400;2024-02-23T10:03:57;155.07;;;57.60;;
46753;SDS011;32500;50.620;3.400;2024-02-23T10:06:25;155.00;;;57.58;;
46753;SDS011;32500;50.620;3.400;2024-02-23T10:08:51;153.85;;;57.05;;
46753;SDS011;32500;50.620;3.400;2024-02-23T10:11:22;157.52;;;57.65;;
46753;SDS011;32500;50.620;3.400;2024-02-23T10:13:48;157.35;;;57.35;;
46753;SDS011;32500;50.620;3.400;2024-02-23T10:16:15;154.43;;;56.78;;
46753;SDS011;32500;50.620;3.400;2024-02-23T10:18:41;157.13;;;56.80;;
46753;SDS011;32500;50.620;3.400;2024-02-23T10:21:07;159.23;;;56.58;;
46753;SDS011;32500;50.620;3.400;2024-02-23T10:23:33;156.07;;;56.80;;
46753;SDS011;32500;50.620;3.400;2024-02-23T10:25:59;156.00;;;56.50;;
46753;SDS011;32500;50.620;3.400;2024-02-23T10:28:24;154.20;;;56.88;;
46753;SDS011;32500;50.620;3.400;2024-02-23T10:30:50;156.73;;;57.15;;
46753;SDS011;32500;50.620;3.400;2024-02-23T10:33:16;152.82;;;57.22;;
46753;SDS011;32500;50.620;3.400;2024-02-23T10:35:47;156.25;;;57.05;;
46753;SDS011;32500;50.620;3.400;2024-02-23T10:38:16;156.18;;;57.13;;
46753;SDS011;32500;50.620;3.400;2024-02-23T10:40:44;155.82;;;57.08;;
46753;SDS011;32500;50.620;3.400;2024-02-23T10:43:12;157.80;;;57.10;;
46753;SDS011;32500;50.620;3.400;2024-02-23T10:45:45;153.80;;;56.92;;
46753;SDS011;32500;50.620;3.400;2024-02-23T10:48:11;156.07;;;56.75;;
46753;SDS011;32500;50.620;3.400;2024-02-23T10:50:39;162.35;;;57.28;;
46753;SDS011;32500;50.620;3.400;2024-02-23T10:53:09;150.63;;;56.47;;
46753;SDS011;32500;50.620;3.400;2024-02-23T10:55:37;155.52;;;56.97;;
46753;SDS011;32500;50.620;3.400;2024-02-23T10:58:04;151.93;;;56.45;;
46753;SDS011;32500;50.620;3.400;2024-02-23T11:00:36;154.23;;;56.63;;
46753;SDS011;32500;50.620;3.400;2024-02-23T11:03:03;154.23;;;56.92;;
46753;SDS011;32500;50.620;3.400;2024-02-23T11:05:29;149.57;;;56.35;;
46753;SDS011;32500;50.620;3.400;2024-02-23T11:07:56;148.60;;;56.08;;
46753;SDS011;32500;50.620;3.400;2024-02-23T11:10:22;151.60;;;56.33;;
46753;SDS011;32500;50.620;3.400;2024-02-23T11:12:58;155.40;;;56.50;;
46753;SDS011;32500;50.620;3.400;2024-02-23T11:15:26;146.18;;;56.17;;
46753;SDS011;32500;50.620;3.400;2024-02-23T11:17:53;150.57;;;56.38;;
46753;SDS011;32500;50.620;3.400;2024-02-23T11:20:19;155.20;;;56.20;;
46753;SDS011;32500;50.620;3.400;2024-02-23T11:22:51;150.00;;;55.67;;
46753;SDS011;32500;50.620;3.400;2024-02-23T11:25:20;147.15;;;56.10;;
46753;SDS011;32500;50.620;3.400;2024-02-23T11:27:52;151.88;;;56.13;;
46753;SDS011;32500;50.620;3.400;2024-02-23T11:30:17;153.63;;;56.28;;
46753;SDS011;32500;50.620;3.400;2024-02-23T11:32:44;154.02;;;56.60;;
46753;SDS011;32500;50.620;3.400;2024-02-23T11:35:19;156.20;;;56.08;;
46753;SDS011;32500;50.620;3.400;2024-02-23T11:37:48;150.20;;;55.53;;
46753;SDS011;32500;50.620;3.400;2024-02-23T11:40:14;150.02;;;56.33;;
46753;SDS011;32500;50.620;3.400;2024-02-23T11:42:42;147.77;;;56.05;;
46753;SDS011;32500;50.620;3.400;2024-02-23T11:45:10;152.95;;;56.08;;
46753;SDS011;32500;50.620;3.400;2024-02-23T11:47:36;150.40;;;55.88;;
46753;SDS011;32500;50.620;3.400;2024-02-23T11:50:03;147.30;;;55.60;;
46753;SDS011;32500;50.620;3.400;2024-02-23T11:52:32;153.40;;;55.85;;
46753;SDS011;32500;50.620;3.400;2024-02-23T11:54:57;151.35;;;56.03;;
46753;SDS011;32500;50.620;3.400;2024-02-23T11:57:24;152.57;;;56.08;;
46753;SDS011;32500;50.620;3.400;2024-02-23T11:59:50;148.20;;;55.83;;
46753;SDS011;32500;50.620;3.400;2024-02-23T12:02:17;149.63;;;55.58;;
46753;SDS011;32500;50.620;3.400;2024-02-23T12:04:43;148.65;;;56.03;;
46753;SDS011;32500;50.620;3.400;2024-02-23T12:07:08;159.63;;;56.40;;
46753;SDS011;32500;50.620;3.400;2024-02-23T12:09:34;151.27;;;56.38;;
46753;SDS011;32500;50.620;3.400;2024-02-23T12:12:00;148.65;;;55.88;;
46753;SDS011;32500;50.620;3.400;2024-02-23T12:14:27;146.25;;;55.75;;
46753;SDS011;32500;50.620;3.400;2024-02-23T12:16:53;150.30;;;55.88;;
46753;SDS011;32500;50.620;3.400;2024-02-23T12:19:18;149.50;;;55.83;;
46753;SDS011;32500;50.620;3.400;2024-02-23T12:21:47;148.43;;;55.75;;
46753;SDS011;32500;50.620;3.400;2024-02-23T12:24:13;148.10;;;55.95;;
46753;SDS011;32500;50.620;3.400;2024-02-23T12:26:38;148.68;;;55.53;;
46753;SDS011;32500;50.620;3.400;2024-02-23T12:29:04;146.40;;;55.85;;
46753;SDS011;32500;50.620;3.400;2024-02-23T12:31:33;145.60;;;55.55;;
46753;SDS011;32500;50.620;3.400;2024-02-23T12:33:59;149.55;;;55.78;;
46753;SDS011;32500;50.620;3.400;2024-02-23T12:36:25;147.60;;;55.53;;
46753;SDS011;32500;50.620;3.400;2024-02-23T12:38:51;145.85;;;55.67;;
46753;SDS011;32500;50.620;3.400;2024-02-23T12:41:17;146.77;;;55.58;;
46753;SDS011;32500;50.620;3.400;2024-02-23T12:43:42;150.50;;;55.42;;
46753;SDS011;32500;50.620;3.400;2024-02-23T12:46:08;146.63;;;55.85;;
46753;SDS011;32500;50.620;3.400;2024-02-23T12:48:36;147.50;;;55.95;;
46753;SDS011;32500;50.620;3.400;2024-02-23T12:51:02;144.88;;;55.35;;
46753;SDS011;32500;50.620;3.400;2024-02-23T12:53:35;148.23;;;55.67;;
46753;SDS011;32500;50.620;3.400;2024-02-23T12:56:12;146.50;;;55.58;;
46753;SDS011;32500;50.620;3.400;2024-02-23T12:58:39;147.40;;;56.05;;
46753;SDS011;32500;50.620;3.400;2024-02-23T13:01:06;147.35;;;55.42;;
46753;SDS011;32500;50.620;3.400;2024-02-23T13:03:33;147.80;;;55.65;;
46753;SDS011;32500;50.620;3.400;2024-02-23T13:06:00;147.48;;;56.00;;
46753;SDS011;32500;50.620;3.400;2024-02-23T13:08:26;147.85;;;55.75;;
46753;SDS011;32500;50.620;3.400;2024-02-23T13:10:52;149.23;;;55.72;;
46753;SDS011;32500;50.620;3.400;2024-02-23T13:13:19;151.10;;;55.53;;
46753;SDS011;32500;50.620;3.400;2024-02-23T13:15:45;149.57;;;56.20;;
46753;SDS011;32500;50.620;3.400;2024-02-23T13:18:12;150.88;;;55.65;;
46753;SDS011;32500;50.620;3.400;2024-02-23T13:20:38;151.68;;;55.72;;
46753;SDS011;32500;50.620;3.400;2024-02-23T13:23:06;149.65;;;56.15;;
46753;SDS011;32500;50.620;3.400;2024-02-23T13:25:33;149.25;;;56.22;;
46753;SDS011;32500;50.620;3.400;2024-02-23T13:28:00;149.68;;;56.03;;
46753;SDS011;32500;50.620;3.400;2024-02-23T13:30:25;150.48;;;55.85;;
46753;SDS011;32500;50.620;3.400;2024-02-23T13:32:51;155.77;;;55.80;;
46753;SDS011;32500;50.620;3.400;2024-02-23T13:35:18;148.85;;;56.13;;
46753;SDS011;32500;50.620;3.400;2024-02-23T13:37:44;150.15;;;56.30;;
46753;SDS011;32500;50.620;3.400;2024-02-23T13:40:09;148.45;;;55.83;;
46753;SDS011;32500;50.620;3.400;2024-02-23T13:42:36;148.60;;;56.13;;
46753;SDS011;32500;50.620;3.400;2024-02-23T13:45:08;149.75;;;56.13;;
46753;SDS011;32500;50.620;3.400;2024-02-23T13:47:34;153.18;;;58.65;;
46753;SDS011;32500;50.620;3.400;2024-02-23T13:50:01;150.55;;;58.33;;
46753;SDS011;32500;50.620;3.400;2024-02-23T13:52:27;152.32;;;58.08;;
46753;SDS011;32500;50.620;3.400;2024-02-23T13:54:53;149.75;;;57.85;;
46753;SDS011;32500;50.620;3.400;2024-02-23T13:57:19;148.80;;;57.17;;
46753;SDS011;32500;50.620;3.400;2024-02-23T13:59:45;151.13;;;57.30;;
46753;SDS011;32500;50.620;3.400;2024-02-23T14:02:11;148.15;;;56.78;;
46753;SDS011;32500;50.620;3.400;2024-02-23T14:04:37;150.15;;;57.63;;
46753;SDS011;32500;50.620;3.400;2024-02-23T14:07:03;152.63;;;57.45;;